Time;durP1;ratioP1;P1;durP2;ratioP2;P2;SDS_P1;SDS_P2;PMS_P1;PMS_P2;Temp;Humidity;BMP_temperature;BMP_pressure;BME280_temperature;BME280_humidity;BME280_pressure;Samples;Min_cycle;Max_cycle;Signal;HPM_P1;HPM_P2
2022/11/19 00:00:46;;;;;;;19.40;8.10;;;-1.90;90.80;;;;;;5006726;28;20045;-80
2022/11/19 00:03:17;;;;;;;13.10;7.03;;;-2.00;90.70;;;;;;5009560;28;20743;-79
2022/11/19 00:05:45;;;;;;;13.52;7.60;;;-2.00;90.70;;;;;;5004002;28;20033;-79
2022/11/19 00:08:15;;;;;;;12.82;7.18;;;-2.10;90.50;;;;;;5002932;28;20037;-79
2022/11/19 00:10:41;;;;;;;12.35;6.90;;;-2.10;90.50;;;;;;4998432;28;20687;-79
2022/11/19 00:13:07;;;;;;;11.63;6.45;;;-2.10;90.40;;;;;;5006968;28;20033;-78
2022/11/19 00:15:34;;;;;;;14.25;6.97;;;-2.10;90.50;;;;;;5006546;28;20045;-79
2022/11/19 00:18:01;;;;;;;12.57;7.07;;;-2.10;90.40;;;;;;5005672;28;20034;-79
2022/11/19 00:20:28;;;;;;;13.65;7.03;;;-2.10;90.40;;;;;;5007668;28;20030;-79
2022/11/19 00:22:56;;;;;;;13.38;6.90;;;-2.20;90.60;;;;;;5002567;28;20409;-79
2022/11/19 00:25:23;;;;;;;12.95;7.45;;;-2.30;90.60;;;;;;5004114;28;20034;-79
2022/11/19 00:27:50;;;;;;;15.57;7.78;;;-2.30;90.60;;;;;;5002622;28;20033;-79
2022/11/19 00:30:16;;;;;;;17.88;8.60;;;-2.30;90.60;;;;;;5001725;28;20038;-79
2022/11/19 00:32:42;;;;;;;14.38;7.65;;;-2.30;90.60;;;;;;5008118;28;20033;-80
2022/11/19 00:35:08;;;;;;;14.63;7.15;;;-2.30;90.50;;;;;;5006881;28;20030;-79
2022/11/19 00:37:34;;;;;;;11.65;7.50;;;-2.40;90.40;;;;;;5008170;28;20044;-78
2022/11/19 00:40:00;;;;;;;14.50;8.18;;;-2.40;90.40;;;;;;5002843;28;20034;-79
2022/11/19 00:42:26;;;;;;;14.40;7.43;;;-2.40;90.40;;;;;;5011199;28;20616;-79
2022/11/19 00:44:52;;;;;;;10.00;6.72;;;-2.40;90.50;;;;;;5006926;28;20481;-79
2022/11/19 00:47:18;;;;;;;17.42;8.23;;;-2.40;90.60;;;;;;5003221;28;20041;-79
2022/11/19 00:49:44;;;;;;;15.07;7.95;;;-2.40;90.70;;;;;;5006824;28;20037;-78
2022/11/19 00:52:10;;;;;;;16.17;8.18;;;-2.40;90.30;;;;;;5005817;28;20041;-79
2022/11/19 00:54:36;;;;;;;16.55;8.40;;;-2.40;90.00;;;;;;5007860;28;20429;-79
2022/11/19 00:57:02;;;;;;;14.10;8.05;;;-2.40;90.10;;;;;;5001017;28;20038;-79
2022/11/19 00:59:27;;;;;;;15.25;7.30;;;-2.50;90.20;;;;;;5005933;28;20379;-78
2022/11/19 01:01:53;;;;;;;14.63;6.97;;;-2.50;90.30;;;;;;5002691;28;20038;-79
2022/11/19 01:04:19;;;;;;;12.93;6.95;;;-2.50;90.40;;;;;;4999503;28;20805;-79
2022/11/19 01:06:45;;;;;;;15.65;7.57;;;-2.50;90.30;;;;;;5001139;28;20116;-79
2022/11/19 01:09:11;;;;;;;15.55;8.38;;;-2.60;90.50;;;;;;5001460;28;20030;-78
2022/11/19 01:11:38;;;;;;;12.73;7.28;;;-2.60;90.60;;;;;;5009752;28;20576;-78
2022/11/19 01:14:06;;;;;;;13.88;7.88;;;-2.60;90.20;;;;;;5005540;28;20038;-78
2022/11/19 01:16:34;;;;;;;12.35;6.72;;;-2.60;90.00;;;;;;5011536;28;20025;-78
2022/11/19 01:19:00;;;;;;;17.80;8.05;;;-2.60;90.10;;;;;;5003547;28;20026;-78
2022/11/19 01:21:29;;;;;;;12.25;6.25;;;-2.60;90.40;;;;;;5003236;28;20080;-79
2022/11/19 01:23:56;;;;;;;12.82;7.00;;;-2.60;90.70;;;;;;5001697;28;20037;-78
2022/11/19 01:26:22;;;;;;;14.73;7.07;;;-2.60;90.90;;;;;;5002691;28;20133;-79
2022/11/19 01:28:48;;;;;;;13.13;6.85;;;-2.60;91.00;;;;;;5010334;28;20519;-78
2022/11/19 01:31:20;;;;;;;14.25;7.28;;;-2.60;90.90;;;;;;5010780;28;20500;-78
2022/11/19 01:33:46;;;;;;;13.20;7.30;;;-2.60;90.90;;;;;;5006141;28;20182;-79
2022/11/19 01:36:20;;;;;;;15.45;7.07;;;-2.60;91.30;;;;;;5012647;28;20092;-79
2022/11/19 01:38:49;;;;;;;14.38;6.75;;;-2.60;90.90;;;;;;5007100;28;20073;-78
2022/11/19 01:41:31;;;;;;;13.65;7.03;;;-2.60;90.80;;;;;;5007785;28;20119;-79
2022/11/19 01:43:59;;;;;;;14.32;6.93;;;-2.60;90.90;;;;;;5010585;28;20034;-79
2022/11/19 01:46:27;;;;;;;16.90;8.18;;;-2.60;90.70;;;;;;5005918;28;20029;-79
2022/11/19 01:48:59;;;;;;;14.80;6.95;;;-2.60;90.90;;;;;;5017658;28;20049;-79
2022/11/19 01:51:26;;;;;;;11.88;6.65;;;-2.70;90.60;;;;;;5011460;28;20037;-79
2022/11/19 01:53:56;;;;;;;16.63;7.25;;;-2.70;90.50;;;;;;5014184;28;20061;-79
2022/11/19 01:56:22;;;;;;;15.45;7.18;;;-2.70;90.50;;;;;;5007428;28;20045;-79
2022/11/19 01:58:57;;;;;;;11.63;6.90;;;-2.80;90.50;;;;;;5009748;28;20075;-79
2022/11/19 02:01:23;;;;;;;13.43;7.18;;;-2.80;90.40;;;;;;5006379;28;20552;-78
2022/11/19 02:03:50;;;;;;;12.70;6.97;;;-2.70;90.00;;;;;;5003439;28;20116;-79
2022/11/19 02:06:16;;;;;;;14.00;7.85;;;-2.80;90.00;;;;;;5009670;28;20084;-78
2022/11/19 02:08:44;;;;;;;13.80;7.07;;;-2.80;90.10;;;;;;5007418;28;20030;-79
2022/11/19 02:11:47;;;;;;;14.02;6.78;;;-2.80;90.20;;;;;;5012718;28;20038;-79
2022/11/19 02:14:53;;;;;;;15.82;7.88;;;-2.80;90.40;;;;;;5006663;28;20040;-79
2022/11/19 02:17:22;;;;;;;11.45;6.03;;;-2.70;90.40;;;;;;5004752;28;20042;-78
2022/11/19 02:20:25;;;;;;;12.40;6.97;;;-2.80;90.50;;;;;;5004170;28;20155;-79
2022/11/19 02:23:20;;;;;;;15.40;6.85;;;-2.80;90.60;;;;;;5001219;28;20040;-79
2022/11/19 02:25:48;;;;;;;15.32;7.32;;;-2.80;90.30;;;;;;5006468;28;20930;-79
2022/11/19 02:28:23;;;;;;;12.77;6.72;;;-2.80;90.40;;;;;;5010166;28;20036;-78
2022/11/19 02:30:59;;;;;;;10.07;5.90;;;-2.90;90.50;;;;;;5008336;28;20120;-79
2022/11/19 02:33:28;;;;;;;;;;;-2.90;90.50;;;;;;5005103;28;20505;-79
2022/11/19 02:36:18;;;;;;;11.77;6.45;;;-2.90;90.50;;;;;;5004144;28;20383;-79
2022/11/19 02:38:51;;;;;;;17.40;7.78;;;-2.90;90.50;;;;;;5000729;28;20052;-78
2022/11/19 02:41:34;;;;;;;15.75;7.15;;;-2.90;90.40;;;;;;5002669;28;20038;-79
2022/11/19 02:47:03;;;;;;;16.80;6.85;;;-2.90;90.20;;;;;;5007157;28;20037;-79
2022/11/19 02:49:32;;;;;;;9.77;5.93;;;-2.90;89.90;;;;;;5008144;28;20037;-79
2022/11/19 02:52:01;;;;;;;11.23;5.75;;;-3.00;89.50;;;;;;5007732;28;20038;-79
2022/11/19 02:54:27;;;;;;;16.00;6.95;;;-3.00;89.90;;;;;;5007767;28;20033;-78
2022/11/19 02:56:57;;;;;;;14.98;5.88;;;-3.00;90.00;;;;;;5008154;28;20119;-79
2022/11/19 03:05:22;;;;;;;17.98;8.60;;;-3.10;90.20;;;;;;5005649;28;20033;-79
2022/11/19 03:07:49;;;;;;;13.55;7.15;;;-3.10;90.40;;;;;;5005877;28;20048;-79
2022/11/19 03:10:16;;;;;;;11.57;6.47;;;-3.10;90.70;;;;;;5007902;28;20045;-78
2022/11/19 03:12:51;;;;;;;12.48;6.28;;;-3.10;90.90;;;;;;5004975;28;20061;-78
2022/11/19 03:18:37;;;;;;;11.75;6.15;;;-3.00;91.40;;;;;;5007367;28;20079;-79
2022/11/19 03:21:23;;;;;;;13.07;7.13;;;-2.90;91.70;;;;;;5007125;28;20997;-78
2022/11/19 03:23:59;;;;;;;12.75;5.93;;;-2.80;91.90;;;;;;5006779;28;20079;-79
2022/11/19 03:26:33;;;;;;;8.85;5.18;;;-2.80;92.10;;;;;;5013226;28;20041;-78
2022/11/19 03:29:04;;;;;;;9.63;5.35;;;-2.80;92.20;;;;;;5005736;28;20041;-78
2022/11/19 03:31:33;;;;;;;10.68;5.43;;;-2.70;92.30;;;;;;5003046;28;20036;-78
2022/11/19 03:34:05;;;;;;;18.08;7.13;;;-2.70;92.40;;;;;;5011045;28;20038;-78
2022/11/19 03:36:42;;;;;;;13.13;6.07;;;-2.70;91.80;;;;;;5001668;28;20025;-78
2022/11/19 03:39:14;;;;;;;12.13;6.28;;;-2.70;90.80;;;;;;4999065;28;20064;-79
2022/11/19 03:41:42;;;;;;;10.75;5.80;;;-2.70;90.60;;;;;;5005638;28;20035;-78
2022/11/19 03:44:15;;;;;;;12.20;6.55;;;-2.80;90.60;;;;;;5007696;28;20801;-78
2022/11/19 03:46:43;;;;;;;13.57;7.03;;;-2.90;90.80;;;;;;5006956;28;20057;-78
2022/11/19 03:49:11;;;;;;;11.45;5.80;;;-2.90;90.80;;;;;;5005887;28;20034;-78
2022/11/19 03:51:47;;;;;;;12.52;5.20;;;-2.90;90.70;;;;;;5007835;28;20087;-78
2022/11/19 03:54:13;;;;;;;10.55;5.90;;;-2.90;90.60;;;;;;5002366;28;20076;-79
2022/11/19 03:56:40;;;;;;;12.52;5.97;;;-2.90;90.60;;;;;;5002518;28;20036;-78
2022/11/19 03:59:10;;;;;;;10.25;5.88;;;-2.90;90.60;;;;;;5004180;28;20038;-78
2022/11/19 04:01:36;;;;;;;9.93;5.72;;;-2.90;90.60;;;;;;5006197;28;20037;-79
2022/11/19 04:06:47;;;;;;;10.95;6.30;;;-2.90;90.50;;;;;;5005704;28;20121;-78
2022/11/19 04:09:12;;;;;;;10.73;5.85;;;-2.90;90.50;;;;;;5009033;28;20148;-78
2022/11/19 04:11:38;;;;;;;14.07;5.80;;;-2.90;89.60;;;;;;5004042;28;20132;-78
2022/11/19 04:14:04;;;;;;;12.65;5.93;;;-2.90;88.90;;;;;;5003190;28;20038;-78
2022/11/19 04:16:30;;;;;;;9.95;5.72;;;-2.90;89.10;;;;;;5001814;28;20112;-79
2022/11/19 04:18:56;;;;;;;9.02;5.22;;;-3.00;89.70;;;;;;5005954;28;20037;-79
2022/11/19 04:21:21;;;;;;;8.98;5.00;;;-3.10;90.40;;;;;;5008809;28;20137;-78
2022/11/19 04:23:47;;;;;;;11.35;5.13;;;-3.20;90.90;;;;;;5007004;28;20133;-78
2022/11/19 04:26:13;;;;;;;10.18;5.10;;;-3.20;91.20;;;;;;5005047;28;20791;-78
2022/11/19 04:28:39;;;;;;;16.98;6.18;;;-3.10;91.10;;;;;;4998751;28;20482;-78
2022/11/19 04:31:05;;;;;;;12.93;6.63;;;-3.10;90.90;;;;;;5007184;28;20037;-78
2022/11/19 04:33:31;;;;;;;11.15;5.65;;;-3.10;90.70;;;;;;5003781;28;20030;-78
2022/11/19 04:35:57;;;;;;;11.75;6.28;;;-3.20;90.40;;;;;;5003619;28;20034;-78
2022/11/19 04:38:22;;;;;;;13.35;5.63;;;-3.20;90.20;;;;;;5005510;28;20053;-78
2022/11/19 04:40:48;;;;;;;10.57;5.78;;;-3.10;89.90;;;;;;5006603;28;20087;-78
2022/11/19 04:43:14;;;;;;;13.00;6.18;;;-3.10;89.20;;;;;;5009425;28;20034;-78
2022/11/19 04:45:40;;;;;;;10.57;5.38;;;-3.10;89.10;;;;;;5004395;28;20037;-78
2022/11/19 04:48:06;;;;;;;8.80;5.65;;;-3.20;89.20;;;;;;5003943;28;20123;-78
2022/11/19 04:50:31;;;;;;;9.70;5.65;;;-3.10;89.60;;;;;;5003367;28;20034;-79
2022/11/19 04:52:58;;;;;;;9.35;5.78;;;-3.10;90.00;;;;;;5001597;28;20025;-79
2022/11/19 04:55:24;;;;;;;10.45;5.38;;;-3.10;90.10;;;;;;5007179;28;20132;-78
2022/11/19 04:57:51;;;;;;;13.65;6.20;;;-3.10;90.30;;;;;;5008057;28;20132;-78
2022/11/19 05:00:18;;;;;;;11.18;5.38;;;-3.10;90.40;;;;;;5006614;28;20038;-78
2022/11/19 05:02:44;;;;;;;11.38;5.68;;;-3.10;90.40;;;;;;5010620;28;20034;-79
2022/11/19 05:05:10;;;;;;;10.75;5.53;;;-3.00;90.50;;;;;;5006197;28;20502;-78
2022/11/19 05:07:36;;;;;;;12.05;5.53;;;-3.00;90.80;;;;;;5006887;28;20056;-78
2022/11/19 05:10:02;;;;;;;9.93;5.45;;;-3.00;90.60;;;;;;5004853;28;20045;-78
2022/11/19 05:12:28;;;;;;;11.13;5.45;;;-3.00;90.90;;;;;;5002261;28;20140;-78
2022/11/19 05:14:53;;;;;;;12.02;5.93;;;-3.00;90.90;;;;;;5009303;28;20098;-78
2022/11/19 05:17:19;;;;;;;9.10;5.32;;;-2.90;90.80;;;;;;5012380;28;20038;-78
2022/11/19 05:19:45;;;;;;;10.25;5.05;;;-2.80;90.70;;;;;;5013715;28;20544;-79
2022/11/19 05:22:11;;;;;;;9.25;4.55;;;-2.80;91.00;;;;;;5018136;28;20064;-78
2022/11/19 05:24:37;;;;;;;9.13;4.70;;;-2.80;91.00;;;;;;5009000;28;20080;-79
2022/11/19 05:27:03;;;;;;;9.27;4.95;;;-2.70;91.40;;;;;;5012529;28;20072;-78
2022/11/19 05:29:28;;;;;;;9.65;5.28;;;-2.70;91.70;;;;;;5005845;28;20052;-78
2022/11/19 05:31:54;;;;;;;11.48;5.20;;;-2.60;92.00;;;;;;5002406;28;20804;-78
2022/11/19 05:34:20;;;;;;;10.40;4.97;;;-2.60;92.10;;;;;;5001311;28;20948;-78
2022/11/19 05:36:46;;;;;;;12.52;4.68;;;-2.50;92.20;;;;;;5002361;28;20034;-78
2022/11/19 05:39:12;;;;;;;8.30;5.20;;;-2.40;92.40;;;;;;5000386;28;20042;-78
2022/11/19 05:41:37;;;;;;;8.65;5.00;;;-2.30;92.40;;;;;;5007633;28;20042;-78
2022/11/19 05:44:03;;;;;;;9.80;5.05;;;-2.20;92.10;;;;;;5003690;28;20129;-78
2022/11/19 05:46:29;;;;;;;10.00;5.72;;;-2.20;91.40;;;;;;5004885;28;20072;-78
2022/11/19 05:48:55;;;;;;;10.15;5.75;;;-2.20;91.20;;;;;;5004080;28;20033;-77
2022/11/19 05:51:21;;;;;;;10.70;5.18;;;-2.20;91.00;;;;;;5007158;28;20033;-78
2022/11/19 05:53:47;;;;;;;10.68;5.78;;;-2.20;90.90;;;;;;5010061;28;20033;-78
2022/11/19 05:56:12;;;;;;;11.90;5.70;;;-2.20;90.70;;;;;;4998657;28;20026;-78
2022/11/19 05:58:38;;;;;;;11.50;5.95;;;-2.20;90.60;;;;;;5002372;28;20592;-79
2022/11/19 06:01:04;;;;;;;13.90;5.07;;;-2.30;90.30;;;;;;5000841;28;20120;-78
2022/11/19 06:03:31;;;;;;;11.35;5.85;;;-2.30;90.00;;;;;;5006295;28;20059;-78
2022/11/19 06:05:56;;;;;;;10.52;5.63;;;-2.30;89.40;;;;;;5001950;28;20029;-78
2022/11/19 06:08:22;;;;;;;13.95;6.05;;;-2.40;89.20;;;;;;5002244;28;20075;-78
2022/11/19 06:10:48;;;;;;;11.55;6.18;;;-2.50;88.60;;;;;;5003762;28;20116;-78
2022/11/19 06:13:14;;;;;;;13.93;6.10;;;-2.50;88.60;;;;;;5000925;28;20038;-78
2022/11/19 06:15:40;;;;;;;11.93;5.82;;;-2.60;88.40;;;;;;5011726;28;20033;-78
2022/11/19 06:18:05;;;;;;;10.88;6.32;;;-2.60;88.00;;;;;;5004600;28;20057;-78
2022/11/19 06:20:31;;;;;;;10.27;5.90;;;-2.70;88.10;;;;;;5000343;28;20038;-78
2022/11/19 06:22:57;;;;;;;12.88;6.90;;;-2.70;88.70;;;;;;5002003;28;20062;-78
2022/11/19 06:25:23;;;;;;;12.05;6.50;;;-2.60;89.20;;;;;;5000330;28;20792;-78
2022/11/19 06:27:48;;;;;;;13.95;5.78;;;-2.60;89.90;;;;;;5001751;28;20040;-78
2022/11/19 06:30:15;;;;;;;15.57;7.03;;;-2.50;90.50;;;;;;4996097;28;20659;-78
2022/11/19 06:32:41;;;;;;;13.65;6.90;;;-2.50;90.80;;;;;;5006403;28;20065;-78
2022/11/19 06:35:08;;;;;;;15.18;7.78;;;-2.40;91.10;;;;;;4998781;28;20066;-78
2022/11/19 06:37:33;;;;;;;13.77;6.85;;;-2.40;91.30;;;;;;4996279;28;20531;-78
2022/11/19 06:39:59;;;;;;;13.07;6.22;;;-2.30;91.40;;;;;;5000586;28;20042;-78
2022/11/19 06:42:37;;;;;;;12.23;5.90;;;-2.30;91.60;;;;;;5001582;28;20033;-79
2022/11/19 06:45:11;;;;;;;11.00;5.50;;;-2.20;91.70;;;;;;4998655;28;20754;-78
2022/11/19 06:47:38;;;;;;;11.50;5.78;;;-2.20;91.80;;;;;;4996793;28;20034;-78
2022/11/19 06:50:06;;;;;;;11.43;5.22;;;-2.20;91.90;;;;;;5000466;28;20080;-78
2022/11/19 06:52:32;;;;;;;13.20;6.13;;;-2.10;92.00;;;;;;5003039;28;20034;-78
2022/11/19 06:54:58;;;;;;;11.52;5.82;;;-2.10;92.00;;;;;;5000407;28;20905;-78
2022/11/19 06:57:24;;;;;;;10.23;5.75;;;-2.10;92.20;;;;;;5004009;28;20220;-78
2022/11/19 06:59:49;;;;;;;11.07;5.65;;;-2.00;92.20;;;;;;4999445;28;20068;-78
2022/11/19 07:02:16;;;;;;;14.07;5.53;;;-2.00;92.20;;;;;;5000418;28;20038;-78
2022/11/19 07:04:41;;;;;;;11.95;6.30;;;-1.90;92.20;;;;;;4997093;28;20030;-79
2022/11/19 07:07:09;;;;;;;9.52;5.25;;;-1.90;92.20;;;;;;4999150;28;20045;-78
2022/11/19 07:09:34;;;;;;;10.82;4.80;;;-1.80;92.20;;;;;;4991543;28;20041;-80
2022/11/19 07:12:00;;;;;;;11.25;5.18;;;-1.80;92.30;;;;;;4998760;28;20041;-75
2022/11/19 07:14:26;;;;;;;10.13;5.22;;;-1.80;92.30;;;;;;4996034;28;20069;-74
2022/11/19 07:16:52;;;;;;;8.38;4.65;;;-1.80;92.20;;;;;;4993613;28;20444;-74
2022/11/19 07:19:18;;;;;;;10.02;5.15;;;-1.70;92.30;;;;;;4992952;28;20071;-74
2022/11/19 07:21:44;;;;;;;9.98;4.93;;;-1.60;92.30;;;;;;4999079;28;20810;-73
2022/11/19 07:24:10;;;;;;;11.90;6.32;;;-1.60;92.20;;;;;;4999413;28;20041;-73
2022/11/19 07:26:36;;;;;;;9.73;5.28;;;-1.60;92.00;;;;;;4997644;28;20104;-74
2022/11/19 07:29:07;;;;;;;11.80;5.68;;;-1.60;91.90;;;;;;4989815;28;20026;-72
2022/11/19 07:31:33;;;;;;;10.73;5.57;;;-1.50;91.70;;;;;;5004600;28;20045;-72
2022/11/19 07:33:59;;;;;;;10.73;5.72;;;-1.50;91.70;;;;;;5003879;28;20045;-75
2022/11/19 07:36:25;;;;;;;10.13;5.82;;;-1.50;91.70;;;;;;4996353;28;20033;-75
2022/11/19 07:38:51;;;;;;;12.48;5.82;;;-1.50;91.70;;;;;;5000867;28;20048;-75
2022/11/19 07:44:04;;;;;;;12.60;7.18;;;-1.50;91.70;;;;;;4969915;28;20050;-75
2022/11/19 07:46:30;;;;;;;22.85;10.20;;;-1.50;91.60;;;;;;5003967;28;20037;-75
2022/11/19 07:48:56;;;;;;;11.30;6.38;;;-1.50;91.50;;;;;;5000999;28;20072;-75
2022/11/19 07:51:23;;;;;;;12.27;6.10;;;-1.50;91.30;;;;;;5000615;28;20457;-73
2022/11/19 07:53:50;;;;;;;11.43;6.47;;;-1.50;91.10;;;;;;4997049;28;20442;-75
2022/11/19 07:56:16;;;;;;;10.23;5.40;;;-1.50;91.00;;;;;;5000028;28;20034;-74
2022/11/19 07:58:42;;;;;;;13.45;6.22;;;-1.50;91.10;;;;;;4997278;28;20029;-71
2022/11/19 08:01:11;;;;;;;13.02;6.22;;;-1.50;91.30;;;;;;4996023;28;20040;-70
2022/11/19 08:03:37;;;;;;;11.75;6.15;;;-1.40;91.20;;;;;;4996149;28;20104;-74
2022/11/19 08:06:04;;;;;;;13.90;7.30;;;-1.40;91.30;;;;;;4994468;28;20064;-76
2022/11/19 08:08:31;;;;;;;10.02;5.53;;;-1.40;91.40;;;;;;5003205;28;20791;-75
2022/11/19 08:11:03;;;;;;;9.95;6.00;;;-1.40;91.40;;;;;;5016121;28;20061;-76
2022/11/19 08:13:28;;;;;;;9.25;5.57;;;-1.40;91.40;;;;;;5004227;28;20045;-76
2022/11/19 08:16:03;;;;;;;10.32;5.97;;;-1.30;91.60;;;;;;4997752;28;20173;-76
2022/11/19 08:18:30;;;;;;;10.82;6.93;;;-1.30;91.70;;;;;;4993766;28;20036;-74
2022/11/19 08:21:01;;;;;;;11.75;6.20;;;-1.20;91.90;;;;;;4992173;28;20505;-77
2022/11/19 08:23:27;;;;;;;15.20;6.40;;;-1.10;92.00;;;;;;5004403;28;20040;-73
2022/11/19 08:25:52;;;;;;;13.45;6.03;;;-1.00;92.10;;;;;;5000092;28;20030;-76
2022/11/19 08:28:18;;;;;;;12.05;6.50;;;-0.90;91.60;;;;;;5002056;28;20033;-75
2022/11/19 08:30:45;;;;;;;12.18;6.22;;;-0.80;91.80;;;;;;4993963;28;20040;-79
2022/11/19 08:33:11;;;;;;;12.93;6.60;;;-0.60;92.50;;;;;;5014578;28;20124;-76
2022/11/19 08:35:37;;;;;;;13.20;5.90;;;-0.40;92.60;;;;;;5006431;28;20033;-75
2022/11/19 08:38:03;;;;;;;12.90;6.18;;;-0.20;92.40;;;;;;4999731;28;20959;-75
2022/11/19 08:40:28;;;;;;;11.85;6.15;;;0.00;91.90;;;;;;5010025;28;20030;-79
2022/11/19 08:43:00;;;;;;;15.02;6.40;;;0.30;91.80;;;;;;5007010;28;20037;-77
2022/11/19 08:45:26;;;;;;;12.55;6.35;;;0.50;91.40;;;;;;5029170;28;20150;-76
2022/11/19 08:47:52;;;;;;;17.17;9.15;;;0.60;91.50;;;;;;5016774;28;20036;-77
2022/11/19 08:50:19;;;;;;;24.05;13.90;;;0.80;91.30;;;;;;5007342;28;20121;-77
2022/11/19 08:52:45;;;;;;;16.73;9.38;;;0.90;91.30;;;;;;5013899;28;20398;-76
2022/11/19 08:55:11;;;;;;;14.65;7.68;;;1.00;91.20;;;;;;5007342;28;20038;-76
2022/11/19 08:57:37;;;;;;;9.90;5.43;;;1.10;91.30;;;;;;5009323;28;20061;-76
2022/11/19 09:00:03;;;;;;;11.50;6.20;;;1.20;91.40;;;;;;5007007;28;20482;-76
2022/11/19 09:02:29;;;;;;;14.35;6.18;;;1.30;91.40;;;;;;5001479;28;20034;-76
2022/11/19 09:04:55;;;;;;;15.18;7.45;;;1.40;91.50;;;;;;4997700;28;20034;-70
2022/11/19 09:07:21;;;;;;;17.63;8.18;;;1.40;91.50;;;;;;5011756;28;20037;-75
2022/11/19 09:09:46;;;;;;;18.30;9.60;;;1.50;91.40;;;;;;5008974;28;20034;-75
2022/11/19 09:12:12;;;;;;;14.90;7.68;;;1.60;91.30;;;;;;4998090;28;20132;-74
2022/11/19 09:14:38;;;;;;;12.25;6.40;;;1.70;91.10;;;;;;5003027;28;20062;-73
2022/11/19 09:17:04;;;;;;;11.75;6.50;;;1.80;91.40;;;;;;5000970;28;20050;-75
2022/11/19 09:19:29;;;;;;;11.60;6.10;;;1.90;90.90;;;;;;4997637;28;20117;-80
2022/11/19 09:21:55;;;;;;;14.25;7.53;;;1.90;90.90;;;;;;5001977;28;20096;-78
2022/11/19 09:24:21;;;;;;;11.68;7.18;;;2.00;90.40;;;;;;5001711;28;20025;-76
2022/11/19 09:26:47;;;;;;;10.98;6.50;;;2.00;90.50;;;;;;5000002;28;20152;-76
2022/11/19 09:29:13;;;;;;;10.23;5.85;;;2.10;90.30;;;;;;4998395;28;20026;-76
2022/11/19 09:31:38;;;;;;;13.25;7.15;;;2.50;90.60;;;;;;4999181;28;20080;-76
2022/11/19 09:34:04;;;;;;;11.75;6.63;;;2.90;88.40;;;;;;5002238;28;20112;-79
2022/11/19 09:36:30;;;;;;;10.48;6.32;;;3.10;87.50;;;;;;5002416;28;20117;-76
2022/11/19 09:38:56;;;;;;;13.32;6.32;;;3.20;87.20;;;;;;5000682;28;20045;-74
2022/11/19 09:41:42;;;;;;;11.23;5.57;;;3.20;87.10;;;;;;4989573;28;20128;-76
2022/11/19 09:44:08;;;;;;;10.27;6.15;;;3.20;87.00;;;;;;5007826;28;20782;-75
2022/11/19 09:46:36;;;;;;;10.65;6.28;;;3.40;84.70;;;;;;5006458;28;20063;-77
2022/11/19 09:49:08;;;;;;;11.88;6.40;;;3.50;84.10;;;;;;5005127;28;20050;-76
2022/11/19 09:51:37;;;;;;;8.23;5.20;;;3.70;82.20;;;;;;4995386;28;20120;-78
2022/11/19 09:54:06;;;;;;;11.32;5.95;;;4.10;81.90;;;;;;4997593;28;20902;-78
2022/11/19 09:56:37;;;;;;;13.52;6.13;;;4.60;79.20;;;;;;5007699;28;20080;-78
2022/11/19 09:59:12;;;;;;;11.85;6.28;;;5.60;77.70;;;;;;4996419;28;20041;-75
2022/11/19 10:01:38;;;;;;;14.93;6.03;;;6.70;70.40;;;;;;4957796;28;1177000;-77
2022/11/19 10:04:04;;;;;;;14.20;6.15;;;7.50;66.90;;;;;;5010486;28;20505;-78
2022/11/19 10:06:40;;;;;;;13.95;6.68;;;8.10;66.40;;;;;;5003129;28;20520;-75
2022/11/19 10:09:21;;;;;;;11.10;5.78;;;8.80;63.50;;;;;;5000087;28;20033;-75
2022/11/19 10:12:27;;;;;;;10.52;5.07;;;9.80;58.90;;;;;;4998340;28;20419;-77
2022/11/19 10:15:17;;;;;;;22.40;13.30;;;10.30;55.30;;;;;;4996724;28;20033;-76
2022/11/19 10:18:10;;;;;;;12.23;7.88;;;10.30;55.00;;;;;;5000508;28;20496;-77
2022/11/19 10:20:47;;;;;;;9.02;5.75;;;11.00;55.10;;;;;;4996439;28;20034;-76
2022/11/19 10:23:18;;;;;;;9.30;6.28;;;11.60;52.00;;;;;;5007821;28;20049;-78
2022/11/19 10:25:47;;;;;;;25.30;11.60;;;11.70;51.40;;;;;;4997720;28;20038;-77
2022/11/19 10:28:55;;;;;;;14.80;7.97;;;11.60;51.60;;;;;;4997818;28;20037;-77
2022/11/19 10:31:33;;;;;;;7.45;5.80;;;11.10;51.60;;;;;;4973116;28;20053;-76
2022/11/19 10:34:05;;;;;;;8.57;5.22;;;10.30;53.50;;;;;;4998685;28;20062;-75
2022/11/19 10:36:42;;;;;;;6.78;4.75;;;10.10;54.50;;;;;;5005011;28;20036;-73
2022/11/19 10:39:19;;;;;;;9.40;5.72;;;10.60;53.30;;;;;;4998185;28;20061;-75
2022/11/19 10:42:05;;;;;;;8.27;5.30;;;10.40;52.50;;;;;;4996801;28;20042;-75
2022/11/19 10:44:49;;;;;;;10.30;5.93;;;11.10;52.50;;;;;;5002741;28;20033;-72
2022/11/19 10:47:29;;;;;;;7.32;5.10;;;12.60;48.00;;;;;;5000411;28;20708;-74
2022/11/19 10:49:55;;;;;;;10.00;6.70;;;13.40;45.70;;;;;;4996720;28;20876;-72
2022/11/19 10:52:27;;;;;;;6.22;4.50;;;13.00;46.50;;;;;;5001181;28;20104;-73
2022/11/19 10:55:17;;;;;;;10.25;6.10;;;13.10;47.40;;;;;;4997094;28;20044;-74
2022/11/19 10:57:45;;;;;;;7.22;4.22;;;13.20;45.80;;;;;;4997281;28;20141;-71
2022/11/19 11:00:11;;;;;;;6.53;4.78;;;14.30;45.10;;;;;;5000534;28;20030;-71
2022/11/19 11:02:55;;;;;;;6.20;4.10;;;14.20;44.40;;;;;;5003020;28;20045;-74
2022/11/19 11:05:21;;;;;;;9.10;5.50;;;12.60;47.80;;;;;;4988485;28;20504;-70
2022/11/19 11:07:52;;;;;;;7.90;6.40;;;10.90;50.60;;;;;;5001730;28;20038;-72
2022/11/19 11:10:26;;;;;;;12.73;8.07;;;9.40;53.50;;;;;;5006271;28;20037;-73
2022/11/19 11:15:45;;;;;;;19.27;10.90;;;7.30;60.20;;;;;;4996525;28;20034;-71
2022/11/19 11:18:13;;;;;;;25.45;12.65;;;6.60;63.30;;;;;;4997226;28;20041;-70
2022/11/19 11:20:46;;;;;;;13.32;6.63;;;6.20;65.40;;;;;;4996358;28;20150;-69
2022/11/19 11:23:19;;;;;;;25.20;13.40;;;5.80;65.20;;;;;;4997314;28;20040;-69
2022/11/19 11:26:01;;;;;;;20.55;10.57;;;5.60;68.40;;;;;;4993775;28;20033;-70
2022/11/19 11:28:28;;;;;;;19.23;9.98;;;5.30;68.80;;;;;;4990937;28;20486;-70
2022/11/19 11:31:10;;;;;;;22.35;10.35;;;5.20;68.70;;;;;;4998380;28;20032;-68
2022/11/19 11:33:40;;;;;;;9.73;6.47;;;4.90;68.70;;;;;;4993015;28;20030;-68
2022/11/19 11:36:12;;;;;;;8.25;5.68;;;4.80;70.40;;;;;;4995998;28;20120;-69
2022/11/19 11:38:50;;;;;;;11.23;6.43;;;4.70;71.50;;;;;;4997807;28;20754;-69
2022/11/19 11:41:31;;;;;;;7.97;5.32;;;4.60;72.20;;;;;;4998755;28;20033;-68
2022/11/19 11:44:00;;;;;;;8.32;5.28;;;4.50;73.70;;;;;;4997088;28;20469;-68
2022/11/19 11:46:40;;;;;;;7.80;4.07;;;4.50;74.80;;;;;;5015879;28;20034;-70
2022/11/19 11:49:25;;;;;;;6.07;3.67;;;4.60;74.60;;;;;;4989775;28;20112;-69
2022/11/19 11:52:05;;;;;;;6.05;3.95;;;4.50;73.40;;;;;;4998445;28;20141;-72
2022/11/19 11:54:31;;;;;;;7.40;4.10;;;4.50;74.20;;;;;;5000585;28;20125;-70
2022/11/19 11:57:19;;;;;;;6.65;4.25;;;4.40;73.30;;;;;;5001783;28;20484;-69
2022/11/19 11:59:45;;;;;;;8.07;4.65;;;4.30;74.80;;;;;;4996436;28;20042;-68
2022/11/19 12:02:37;;;;;;;6.85;4.10;;;4.20;75.40;;;;;;4996853;28;20042;-74
2022/11/19 12:05:15;;;;;;;7.45;4.20;;;4.30;76.80;;;;;;4992241;28;20038;-69
2022/11/19 12:08:01;;;;;;;5.35;3.60;;;4.30;76.60;;;;;;4994321;28;20030;-66
2022/11/19 12:10:51;;;;;;;4.22;3.45;;;4.40;76.20;;;;;;4999941;28;20044;-68
2022/11/19 12:13:47;;;;;;;5.03;3.35;;;4.40;75.80;;;;;;4992789;28;20041;-71
2022/11/19 12:16:34;;;;;;;5.90;3.30;;;4.40;75.80;;;;;;4996301;28;20041;-71
2022/11/19 12:19:25;;;;;;;6.65;4.03;;;4.50;76.20;;;;;;4995466;28;20038;-72
2022/11/19 12:22:02;;;;;;;4.63;3.38;;;4.50;77.60;;;;;;4998262;28;20119;-68
2022/11/19 12:24:53;;;;;;;5.60;3.30;;;4.50;77.00;;;;;;4998750;28;20074;-69
2022/11/19 12:27:29;;;;;;;5.85;3.40;;;4.60;76.70;;;;;;4998881;28;20120;-69
2022/11/19 12:30:05;;;;;;;;;;;4.60;76.50;;;;;;4998817;28;20133;-70
2022/11/19 12:32:46;;;;;;;7.32;3.33;;;4.70;75.40;;;;;;5001045;28;19983;-71
2022/11/19 12:35:30;;;;;;;5.72;3.60;;;4.80;74.40;;;;;;5001743;28;20034;-70
2022/11/19 12:38:11;;;;;;;4.72;3.10;;;4.80;75.40;;;;;;4992964;28;20042;-72
2022/11/19 12:40:42;;;;;;;5.35;3.08;;;4.90;73.60;;;;;;4996483;28;20127;-72
2022/11/19 12:43:42;;;;;;;5.53;2.90;;;4.80;72.90;;;;;;5001266;28;20045;-72
2022/11/19 12:46:27;;;;;;;5.60;3.25;;;4.90;74.90;;;;;;4990081;28;20045;-71
2022/11/19 12:48:59;;;;;;;30.67;7.38;;;4.80;72.70;;;;;;4994188;28;20604;-71
2022/11/19 12:51:52;;;;;;;4.70;3.25;;;4.90;73.70;;;;;;5003595;28;20034;-71
2022/11/19 12:54:24;;;;;;;5.32;3.10;;;4.80;73.10;;;;;;4993102;28;20042;-71
2022/11/19 12:57:19;;;;;;;4.75;3.40;;;4.80;74.40;;;;;;4998435;28;20042;-71
2022/11/19 13:00:02;;;;;;;4.90;3.10;;;4.80;74.20;;;;;;4996136;28;20045;-71
2022/11/19 13:02:35;;;;;;;4.38;2.92;;;5.00;74.20;;;;;;4998850;28;20038;-71
2022/11/19 13:05:06;;;;;;;3.95;2.35;;;5.00;74.40;;;;;;4997728;28;20872;-72
2022/11/19 13:07:45;;;;;;;4.65;3.13;;;5.00;74.70;;;;;;5000552;28;20034;-71
2022/11/19 13:10:17;;;;;;;3.90;2.75;;;5.10;75.40;;;;;;4988121;28;20108;-72
2022/11/19 13:12:50;;;;;;;5.28;3.15;;;5.20;75.00;;;;;;4992686;28;20034;-76
2022/11/19 13:15:25;;;;;;;4.70;2.83;;;5.20;71.90;;;;;;4997842;28;20038;-72
2022/11/19 13:17:53;;;;;;;6.93;3.45;;;5.20;72.60;;;;;;4998487;28;20042;-72
2022/11/19 13:20:47;;;;;;;5.75;3.25;;;5.20;72.90;;;;;;4997718;28;20513;-71